createdAt,value
2018-11-29T00:00:25.974Z,9.10
2018-11-29T00:01:25.958Z,9.20
2018-11-29T00:02:25.928Z,9.40
2018-11-29T00:03:25.903Z,9.70
2018-11-29T00:04:25.885Z,9.30
2018-11-29T00:05:25.855Z,9.50
2018-11-29T00:06:25.827Z,9.40
2018-11-29T00:07:25.812Z,10.10
2018-11-29T00:08:25.783Z,8.90
2018-11-29T00:09:25.755Z,9.10
2018-11-29T00:10:25.731Z,9.00
2018-11-29T00:11:25.709Z,9.40
2018-11-29T00:12:25.684Z,10.00
2018-11-29T00:13:25.659Z,10.00
2018-11-29T00:14:25.637Z,9.40
2018-11-29T00:15:25.619Z,9.30
2018-11-29T00:16:25.593Z,9.60
2018-11-29T00:17:25.581Z,9.90
2018-11-29T00:18:25.538Z,9.50
2018-11-29T00:19:25.517Z,10.00
2018-11-29T00:20:25.494Z,9.60
2018-11-29T00:21:25.476Z,9.60
2018-11-29T00:22:25.442Z,9.70
2018-11-29T00:23:25.418Z,9.70
2018-11-29T00:24:25.394Z,9.90
2018-11-29T00:25:25.369Z,9.30
2018-11-29T00:26:25.347Z,9.40
2018-11-29T00:27:25.331Z,9.00
2018-11-29T00:28:25.300Z,9.70
2018-11-29T00:29:25.273Z,9.40
2018-11-29T00:30:25.273Z,9.60
2018-11-29T00:31:25.225Z,9.60
2018-11-29T00:32:25.201Z,10.10
2018-11-29T00:33:25.179Z,9.60
2018-11-29T00:34:25.157Z,10.00
2018-11-29T00:35:25.136Z,9.10
2018-11-29T00:36:25.106Z,9.60
2018-11-29T00:37:25.081Z,9.60
2018-11-29T00:38:25.064Z,9.10
2018-11-29T00:39:25.136Z,9.70
2018-11-29T00:40:25.011Z,9.30
2018-11-29T00:41:24.988Z,9.80
2018-11-29T00:42:24.962Z,10.30
2018-11-29T00:43:24.943Z,9.70
2018-11-29T00:44:24.916Z,9.60
2018-11-29T00:45:24.891Z,9.60
2018-11-29T00:46:24.866Z,8.80
2018-11-29T00:47:24.850Z,9.10
2018-11-29T00:48:24.820Z,9.80
2018-11-29T00:49:24.796Z,9.90
2018-11-29T00:50:24.783Z,9.00
2018-11-29T00:51:24.756Z,9.90
2018-11-29T00:52:24.724Z,9.70
2018-11-29T00:53:24.708Z,9.40
2018-11-29T00:54:24.698Z,9.30
2018-11-29T00:55:24.657Z,9.20
2018-11-29T00:56:24.627Z,10.60
2018-11-29T00:57:24.603Z,9.60
2018-11-29T00:58:24.597Z,9.20
2018-11-29T00:59:24.556Z,9.60
2018-11-29T01:00:24.533Z,9.10
2018-11-29T01:01:24.508Z,9.60
2018-11-29T01:02:24.492Z,9.30
2018-11-29T01:03:24.467Z,9.80
2018-11-29T01:04:24.437Z,9.20
2018-11-29T01:05:24.411Z,9.40
2018-11-29T01:06:24.388Z,9.30
2018-11-29T01:07:24.368Z,9.30
2018-11-29T01:08:24.343Z,9.10
2018-11-29T01:09:24.320Z,8.70
2018-11-29T01:10:24.293Z,9.50
2018-11-29T01:11:24.278Z,9.70
2018-11-29T01:12:24.245Z,9.70
2018-11-29T01:13:24.221Z,10.00
2018-11-29T01:14:24.198Z,9.40
2018-11-29T01:15:24.180Z,9.40
2018-11-29T01:16:24.150Z,9.70
2018-11-29T01:17:24.128Z,9.40
2018-11-29T01:18:24.101Z,9.10
2018-11-29T01:19:24.079Z,9.40
2018-11-29T01:20:24.055Z,8.60
2018-11-29T01:21:24.031Z,9.90
2018-11-29T01:22:24.009Z,10.00
2018-11-29T01:23:23.992Z,9.40
2018-11-29T01:24:23.960Z,8.70
2018-11-29T01:25:23.934Z,9.10
2018-11-29T01:26:23.912Z,9.70
2018-11-29T01:27:23.897Z,8.70
2018-11-29T01:28:23.866Z,8.70
2018-11-29T01:29:23.846Z,9.60
2018-11-29T01:30:23.820Z,9.00
2018-11-29T01:31:23.794Z,9.50
2018-11-29T01:32:23.773Z,9.30
2018-11-29T01:33:23.745Z,9.50
2018-11-29T01:34:23.723Z,9.30
2018-11-29T01:35:24.337Z,9.60
2018-11-29T01:36:23.682Z,9.70
2018-11-29T01:37:23.652Z,9.30
2018-11-29T01:38:23.627Z,8.90
2018-11-29T01:39:23.612Z,9.20
2018-11-29T01:40:23.629Z,9.20
2018-11-29T01:41:23.568Z,9.30
2018-11-29T01:42:23.534Z,8.70
2018-11-29T01:43:23.511Z,9.60
2018-11-29T01:44:23.490Z,9.20
2018-11-29T01:45:23.463Z,9.10
2018-11-29T01:46:23.439Z,9.20
2018-11-29T01:47:23.417Z,8.80
2018-11-29T01:48:23.400Z,9.00
2018-11-29T01:49:23.366Z,8.60
2018-11-29T01:50:23.346Z,8.90
2018-11-29T01:51:23.322Z,9.20
2018-11-29T01:52:23.298Z,9.10
2018-11-29T01:53:23.273Z,9.30
2018-11-29T01:54:23.251Z,8.30
2018-11-29T01:55:23.228Z,9.10
2018-11-29T01:56:23.202Z,9.40
2018-11-29T01:57:23.188Z,8.70
2018-11-29T01:58:23.156Z,9.10
2018-11-29T01:59:23.140Z,9.10
2018-11-29T02:00:23.107Z,9.30
2018-11-29T02:01:23.101Z,9.30
2018-11-29T02:02:23.059Z,8.30
2018-11-29T02:03:23.039Z,9.20
2018-11-29T02:04:23.014Z,9.10
2018-11-29T02:05:22.989Z,8.70
2018-11-29T02:06:22.968Z,8.80
2018-11-29T02:07:22.943Z,8.50
2018-11-29T02:08:22.920Z,9.00
2018-11-29T02:09:22.894Z,9.10
2018-11-29T02:10:22.880Z,8.90
2018-11-29T02:11:22.847Z,8.60
2018-11-29T02:12:22.824Z,9.10
2018-11-29T02:13:22.802Z,9.00
2018-11-29T02:14:22.775Z,9.50
2018-11-29T02:15:22.752Z,9.40
2018-11-29T02:16:22.729Z,9.30
2018-11-29T02:17:22.705Z,8.60
2018-11-29T02:18:22.689Z,9.20
2018-11-29T02:19:22.667Z,9.10
2018-11-29T02:20:22.634Z,8.90
2018-11-29T02:21:22.611Z,8.80
2018-11-29T02:22:22.585Z,9.10
2018-11-29T02:23:22.569Z,9.30
2018-11-29T02:24:22.554Z,9.00
2018-11-29T02:25:22.515Z,9.10
2018-11-29T02:26:22.504Z,9.00
2018-11-29T02:27:22.474Z,8.90
2018-11-29T02:28:22.448Z,9.10
2018-11-29T02:29:22.422Z,9.60
2018-11-29T02:30:22.410Z,8.40
2018-11-29T02:31:22.374Z,9.50
2018-11-29T02:32:22.363Z,8.60
2018-11-29T02:33:22.338Z,8.50
2018-11-29T02:34:22.305Z,8.80
2018-11-29T02:35:22.282Z,8.30
2018-11-29T02:36:22.261Z,8.70
2018-11-29T02:37:22.236Z,8.40
2018-11-29T02:38:22.212Z,8.60
2018-11-29T02:39:22.189Z,8.40
2018-11-29T02:40:22.163Z,7.90
2018-11-29T02:41:22.147Z,8.50
2018-11-29T02:42:22.118Z,8.70
2018-11-29T02:43:22.102Z,8.00
2018-11-29T02:44:22.093Z,8.40
2018-11-29T02:45:22.046Z,8.50
2018-11-29T02:46:22.074Z,9.10
2018-11-29T02:47:21.998Z,8.50
2018-11-29T02:48:21.976Z,7.70
2018-11-29T02:49:21.953Z,8.60
2018-11-29T02:50:21.930Z,8.70
2018-11-29T02:51:21.907Z,8.60
2018-11-29T02:52:21.893Z,8.40
2018-11-29T02:53:21.861Z,8.90
2018-11-29T02:54:21.835Z,8.60
2018-11-29T02:55:21.826Z,8.90
2018-11-29T02:56:21.790Z,8.80
2018-11-29T02:57:21.767Z,8.50
2018-11-29T02:58:21.752Z,8.60
2018-11-29T02:59:21.729Z,8.90
2018-11-29T03:00:21.699Z,8.60
2018-11-29T03:01:21.681Z,8.30
2018-11-29T03:02:21.649Z,7.80
2018-11-29T03:03:21.626Z,8.20
2018-11-29T03:04:21.603Z,8.50
2018-11-29T03:05:21.580Z,7.90
2018-11-29T03:06:21.558Z,7.80
2018-11-29T03:07:21.535Z,8.20
2018-11-29T03:08:21.518Z,8.20
2018-11-29T03:09:21.486Z,7.30
2018-11-29T03:10:21.472Z,7.50
2018-11-29T03:11:21.623Z,7.30
2018-11-29T03:12:21.416Z,7.60
2018-11-29T03:13:21.396Z,7.80
2018-11-29T03:14:21.370Z,7.60
2018-11-29T03:15:21.348Z,7.40
2018-11-29T03:16:21.323Z,8.50
2018-11-29T03:17:21.302Z,7.10
2018-11-29T03:18:21.278Z,8.10
2018-11-29T03:19:21.257Z,8.30
2018-11-29T03:20:21.232Z,7.50
2018-11-29T03:21:21.208Z,8.20
2018-11-29T03:22:21.205Z,7.90
2018-11-29T03:23:21.170Z,8.00
2018-11-29T03:24:21.150Z,8.20
2018-11-29T03:25:21.166Z,8.20
2018-11-29T03:26:21.105Z,8.10
2018-11-29T03:27:21.071Z,8.20
2018-11-29T03:28:21.045Z,7.90
2018-11-29T03:29:21.039Z,8.50
2018-11-29T03:30:21.000Z,8.70
2018-11-29T03:31:20.977Z,8.50
2018-11-29T03:32:20.966Z,8.60
2018-11-29T03:33:20.931Z,8.60
2018-11-29T03:34:20.918Z,8.20
2018-11-29T03:35:20.883Z,8.50
2018-11-29T03:36:20.862Z,8.60
2018-11-29T03:37:20.847Z,7.80
2018-11-29T03:38:20.813Z,6.50
2018-11-29T03:39:20.792Z,7.40
2018-11-29T03:40:20.780Z,8.00
2018-11-29T03:41:20.756Z,8.20
2018-11-29T03:42:20.739Z,7.90
2018-11-29T03:43:20.704Z,8.70
2018-11-29T03:44:20.680Z,7.90
2018-11-29T03:45:20.662Z,7.20
2018-11-29T03:46:20.634Z,7.00
2018-11-29T03:47:20.642Z,7.60
2018-11-29T03:48:20.597Z,7.60
2018-11-29T03:49:20.560Z,7.00
2018-11-29T03:50:20.539Z,7.00
2018-11-29T03:51:20.516Z,7.40
2018-11-29T03:52:20.492Z,7.10
2018-11-29T03:53:20.472Z,6.90
2018-11-29T03:54:20.444Z,7.70
2018-11-29T03:55:20.423Z,6.50
2018-11-29T03:56:20.397Z,6.70
2018-11-29T03:57:20.379Z,6.60
2018-11-29T03:58:20.352Z,7.20
2018-11-29T03:59:20.334Z,7.10
2018-11-29T04:00:20.307Z,7.20
2018-11-29T04:01:20.282Z,7.10
2018-11-29T04:02:20.262Z,6.60
2018-11-29T04:03:20.246Z,6.40
2018-11-29T04:04:20.216Z,7.30
2018-11-29T04:05:20.194Z,7.40
2018-11-29T04:06:20.168Z,7.80
2018-11-29T04:07:20.151Z,7.40
2018-11-29T04:08:20.126Z,7.80
2018-11-29T04:09:20.100Z,6.70
2018-11-29T04:10:20.077Z,7.70
2018-11-29T04:11:20.055Z,7.80
2018-11-29T04:12:20.038Z,7.80
2018-11-29T04:13:20.008Z,7.60
2018-11-29T04:14:19.984Z,7.80
2018-11-29T04:15:19.964Z,8.00
2018-11-29T04:16:19.943Z,7.70
2018-11-29T04:17:19.917Z,7.70
2018-11-29T04:18:19.898Z,8.10
2018-11-29T04:19:19.871Z,8.20
2018-11-29T04:20:19.856Z,8.20
2018-11-29T04:21:19.824Z,8.20
2018-11-29T04:22:19.811Z,7.90
2018-11-29T04:23:19.781Z,7.70
2018-11-29T04:24:19.769Z,8.40
2018-11-29T04:25:19.734Z,7.30
2018-11-29T04:26:19.709Z,7.30
2018-11-29T04:27:19.690Z,8.30
2018-11-29T04:28:19.663Z,8.50
2018-11-29T04:29:19.641Z,7.70
2018-11-29T04:30:19.618Z,8.00
2018-11-29T04:31:19.597Z,7.60
2018-11-29T04:32:19.586Z,7.40
2018-11-29T04:33:19.556Z,7.90
2018-11-29T04:34:19.534Z,7.60
2018-11-29T04:35:19.504Z,7.80
2018-11-29T04:36:19.482Z,7.70
2018-11-29T04:37:19.458Z,7.50
2018-11-29T04:38:19.434Z,7.90
2018-11-29T04:39:19.413Z,7.90
2018-11-29T04:40:19.398Z,7.40
2018-11-29T04:41:19.368Z,7.70
2018-11-29T04:42:19.346Z,7.90
2018-11-29T04:43:19.323Z,7.70
2018-11-29T04:44:19.298Z,7.10
2018-11-29T04:45:19.324Z,7.50
2018-11-29T04:46:19.252Z,7.40
2018-11-29T04:47:19.245Z,8.00
2018-11-29T04:48:19.207Z,7.20
2018-11-29T04:49:19.185Z,7.40
2018-11-29T04:50:19.174Z,7.20
2018-11-29T04:51:19.146Z,7.20
2018-11-29T04:52:19.116Z,7.60
2018-11-29T04:53:19.094Z,6.90
2018-11-29T04:54:19.069Z,7.30
2018-11-29T04:55:19.047Z,6.90
2018-11-29T04:56:19.028Z,7.50
2018-11-29T04:57:19.000Z,7.80
2018-11-29T04:58:18.980Z,6.90
2018-11-29T04:59:18.967Z,7.10
2018-11-29T05:00:18.933Z,8.10
2018-11-29T05:01:18.908Z,7.60
2018-11-29T05:02:18.892Z,6.90
2018-11-29T05:03:18.863Z,6.70
2018-11-29T05:04:18.841Z,7.00
2018-11-29T05:05:18.819Z,7.30
2018-11-29T05:06:18.796Z,7.20
2018-11-29T05:07:18.786Z,7.50
2018-11-29T05:08:18.768Z,7.40
2018-11-29T05:09:18.725Z,8.40
2018-11-29T05:10:18.703Z,7.90
2018-11-29T05:11:18.681Z,8.10
2018-11-29T05:12:18.664Z,8.30
2018-11-29T05:13:18.636Z,7.80
2018-11-29T05:14:18.615Z,8.70
2018-11-29T05:15:18.591Z,8.50
2018-11-29T05:16:18.576Z,8.70
2018-11-29T05:17:18.545Z,8.30
2018-11-29T05:18:18.843Z,8.10
2018-11-29T05:19:18.506Z,8.40
2018-11-29T05:20:18.475Z,7.70
2018-11-29T05:21:18.452Z,7.70
2018-11-29T05:22:18.439Z,8.20
2018-11-29T05:23:18.412Z,8.40
2018-11-29T05:24:18.388Z,7.40
2018-11-29T05:25:18.380Z,7.60
2018-11-29T05:26:18.348Z,7.40
2018-11-29T05:27:18.314Z,7.40
2018-11-29T05:28:18.292Z,7.40
2018-11-29T05:29:18.289Z,7.10
2018-11-29T05:30:18.249Z,7.70
2018-11-29T05:31:18.225Z,7.30
2018-11-29T05:32:18.201Z,7.60
2018-11-29T05:33:18.176Z,7.90
2018-11-29T05:34:18.154Z,8.30
2018-11-29T05:35:18.129Z,8.00
2018-11-29T05:36:18.109Z,8.20
2018-11-29T05:37:18.085Z,7.90
2018-11-29T05:38:18.064Z,7.70
2018-11-29T05:39:18.044Z,7.80
2018-11-29T05:40:18.016Z,7.70
2018-11-29T05:41:17.994Z,8.20
2018-11-29T05:42:17.973Z,7.90
2018-11-29T05:43:17.949Z,7.60
2018-11-29T05:44:17.925Z,8.90
2018-11-29T05:45:17.909Z,8.30
2018-11-29T05:46:17.878Z,8.20
2018-11-29T05:47:17.856Z,8.60
2018-11-29T05:48:17.834Z,8.20
2018-11-29T05:49:17.814Z,7.80
2018-11-29T05:50:17.788Z,8.30
2018-11-29T05:51:17.763Z,7.90
2018-11-29T05:52:17.759Z,9.00
2018-11-29T05:53:17.719Z,8.70
2018-11-29T05:54:17.756Z,8.10
2018-11-29T05:55:17.679Z,8.70
2018-11-29T05:56:17.659Z,8.90
2018-11-29T05:57:17.626Z,8.90
2018-11-29T05:58:17.602Z,8.80
2018-11-29T05:59:17.581Z,8.60
2018-11-29T06:00:17.571Z,9.00
2018-11-29T06:01:17.535Z,8.60
2018-11-29T06:02:17.516Z,9.10
2018-11-29T06:03:17.496Z,9.10
2018-11-29T06:04:17.466Z,9.00
2018-11-29T06:05:17.450Z,9.20
2018-11-29T06:06:17.427Z,9.50
2018-11-29T06:07:17.396Z,9.00
2018-11-29T06:08:17.372Z,9.30
2018-11-29T06:09:17.348Z,8.90
2018-11-29T06:10:17.328Z,9.20
2018-11-29T06:11:17.306Z,8.20
2018-11-29T06:12:17.281Z,8.80
2018-11-29T06:13:17.260Z,9.00
2018-11-29T06:14:17.234Z,8.40
2018-11-29T06:15:17.227Z,8.90
2018-11-29T06:16:17.190Z,9.20
2018-11-29T06:17:17.173Z,9.00
2018-11-29T06:18:17.141Z,9.40
2018-11-29T06:19:17.128Z,9.30
2018-11-29T06:20:17.098Z,9.60
2018-11-29T06:21:17.071Z,9.60
2018-11-29T06:22:17.051Z,9.00
2018-11-29T06:23:17.026Z,8.70
2018-11-29T06:24:17.004Z,9.00
2018-11-29T06:25:17.000Z,10.10
2018-11-29T06:26:16.962Z,8.80
2018-11-29T06:27:16.934Z,9.00
2018-11-29T06:28:16.910Z,9.30
2018-11-29T06:29:16.887Z,9.30
2018-11-29T06:30:16.863Z,9.80
2018-11-29T06:31:16.842Z,9.40
2018-11-29T06:32:16.822Z,8.10
2018-11-29T06:33:16.794Z,9.50
2018-11-29T06:34:16.774Z,9.00
2018-11-29T06:35:16.750Z,9.60
2018-11-29T06:36:16.727Z,9.40
2018-11-29T06:37:16.705Z,8.90
2018-11-29T06:38:16.681Z,8.30
2018-11-29T06:39:16.655Z,9.00
2018-11-29T06:40:16.631Z,9.80
2018-11-29T06:41:16.618Z,8.60
2018-11-29T06:42:16.587Z,9.20
2018-11-29T06:43:16.563Z,9.60
2018-11-29T06:44:16.549Z,9.60
2018-11-29T06:45:16.525Z,8.90
2018-11-29T06:46:16.498Z,9.10
2018-11-29T06:47:16.470Z,9.20
2018-11-29T06:48:16.458Z,9.10
2018-11-29T06:49:16.427Z,9.60
2018-11-29T06:50:16.400Z,9.40
2018-11-29T06:51:16.378Z,9.20
2018-11-29T06:52:16.354Z,9.20
2018-11-29T06:53:16.337Z,8.70
2018-11-29T06:54:16.312Z,9.80
2018-11-29T06:55:16.289Z,10.30
2018-11-29T06:56:16.262Z,9.30
2018-11-29T06:57:16.239Z,9.80
2018-11-29T06:58:16.935Z,10.00
2018-11-29T06:59:16.194Z,9.20
2018-11-29T07:00:16.202Z,10.10
2018-11-29T07:01:16.147Z,10.20
2018-11-29T07:02:16.129Z,9.90
2018-11-29T07:03:16.101Z,9.70
2018-11-29T07:04:16.079Z,10.20
2018-11-29T07:05:16.051Z,9.80
2018-11-29T07:06:16.036Z,10.00
2018-11-29T07:07:16.005Z,9.60
2018-11-29T07:08:15.982Z,10.60
2018-11-29T07:09:15.958Z,10.50
2018-11-29T07:10:15.936Z,9.50
2018-11-29T07:11:15.912Z,10.30
2018-11-29T07:12:15.896Z,10.70
2018-11-29T07:13:15.865Z,10.90
2018-11-29T07:14:15.894Z,10.70
2018-11-29T07:15:15.819Z,10.10
2018-11-29T07:16:15.797Z,10.80
2018-11-29T07:17:15.772Z,9.80
2018-11-29T07:18:15.753Z,10.60
2018-11-29T07:19:15.732Z,9.50
2018-11-29T07:20:15.703Z,9.90
2018-11-29T07:21:15.684Z,10.00
2018-11-29T07:22:15.663Z,10.40
2018-11-29T07:23:15.633Z,10.20
2018-11-29T07:24:15.614Z,10.90
2018-11-29T07:25:15.588Z,10.50
2018-11-29T07:26:15.568Z,10.50
2018-11-29T07:27:15.540Z,9.70
2018-11-29T07:28:15.517Z,10.20
2018-11-29T07:29:17.110Z,10.50
2018-11-29T07:30:15.471Z,10.20
2018-11-29T07:31:15.447Z,9.50
2018-11-29T07:32:15.425Z,9.60
2018-11-29T07:33:15.401Z,9.70
2018-11-29T07:34:15.377Z,9.20
2018-11-29T07:35:15.358Z,9.90
2018-11-29T07:36:15.342Z,9.50
2018-11-29T07:37:17.480Z,9.60
2018-11-29T07:38:15.286Z,9.50
2018-11-29T07:39:15.270Z,10.10
2018-11-29T07:40:15.240Z,9.00
2018-11-29T07:41:15.220Z,9.90
2018-11-29T07:42:15.200Z,9.70
2018-11-29T07:43:15.169Z,9.20
2018-11-29T07:44:15.173Z,9.50
2018-11-29T07:45:15.139Z,10.90
2018-11-29T07:46:15.102Z,9.80
2018-11-29T07:47:15.076Z,10.30
2018-11-29T07:48:15.063Z,10.00
2018-11-29T07:49:15.032Z,10.20
2018-11-29T07:50:15.009Z,9.40
2018-11-29T07:51:14.983Z,9.40
2018-11-29T07:52:14.965Z,9.10
2018-11-29T07:53:14.941Z,9.40
2018-11-29T07:54:14.913Z,8.80
2018-11-29T07:55:14.892Z,9.90
2018-11-29T07:56:14.873Z,9.70
2018-11-29T07:57:14.846Z,9.80
2018-11-29T07:58:14.832Z,9.10
2018-11-29T07:59:14.799Z,9.30
2018-11-29T08:00:14.787Z,9.20
2018-11-29T08:01:14.752Z,9.50
2018-11-29T08:02:14.731Z,10.30
2018-11-29T08:03:14.708Z,8.60
2018-11-29T08:04:14.697Z,9.70
2018-11-29T08:05:14.662Z,8.90
2018-11-29T08:06:14.645Z,10.00
2018-11-29T08:07:14.622Z,9.10
2018-11-29T08:08:14.608Z,9.90
2018-11-29T08:09:14.571Z,9.40
2018-11-29T08:10:14.545Z,9.30
2018-11-29T08:11:14.523Z,9.30
2018-11-29T08:12:14.509Z,9.50
2018-11-29T08:13:14.478Z,9.40
2018-11-29T08:14:14.455Z,9.00
2018-11-29T08:15:14.432Z,9.40
2018-11-29T08:16:14.410Z,9.00
2018-11-29T08:17:14.390Z,9.70
2018-11-29T08:18:14.365Z,9.60
2018-11-29T08:19:14.342Z,9.00
2018-11-29T08:20:14.325Z,9.10
2018-11-29T08:21:14.302Z,9.90
2018-11-29T08:22:14.271Z,9.30
2018-11-29T08:23:14.257Z,9.60
2018-11-29T08:24:14.226Z,8.90
2018-11-29T08:25:14.204Z,8.90
2018-11-29T08:26:14.188Z,9.40
2018-11-29T08:27:14.157Z,9.10
2018-11-29T08:28:14.145Z,9.00
2018-11-29T08:29:14.113Z,8.80
2018-11-29T08:30:14.110Z,9.50
2018-11-29T08:31:14.069Z,8.90
2018-11-29T08:32:14.048Z,9.40
2018-11-29T08:33:14.027Z,9.10
2018-11-29T08:34:14.001Z,9.60
2018-11-29T08:35:13.980Z,9.50
2018-11-29T08:36:13.956Z,9.50
2018-11-29T08:37:13.932Z,9.00
2018-11-29T08:38:13.907Z,10.20
2018-11-29T08:39:13.887Z,9.00
2018-11-29T08:40:13.874Z,8.90
2018-11-29T08:41:13.868Z,9.20
2018-11-29T08:42:13.816Z,9.30
2018-11-29T08:43:13.803Z,8.70
2018-11-29T08:44:13.773Z,9.70
2018-11-29T08:45:13.755Z,9.40
2018-11-29T08:46:13.725Z,9.50
2018-11-29T08:47:13.703Z,8.90
2018-11-29T08:48:13.835Z,9.10
2018-11-29T08:49:13.657Z,8.90
2018-11-29T08:50:13.634Z,8.90
2018-11-29T08:51:13.612Z,9.10
2018-11-29T08:52:13.589Z,9.60
2018-11-29T08:53:13.571Z,10.10
2018-11-29T08:54:13.562Z,10.10
2018-11-29T08:55:13.521Z,9.50
2018-11-29T08:56:13.498Z,9.70
2018-11-29T08:57:13.474Z,9.10
2018-11-29T08:58:13.456Z,10.00
2018-11-29T08:59:13.430Z,10.20
2018-11-29T09:00:13.409Z,9.80
2018-11-29T09:01:13.391Z,9.90
2018-11-29T09:02:13.412Z,9.60
2018-11-29T09:03:13.346Z,9.80
2018-11-29T09:04:13.323Z,9.60
2018-11-29T09:05:13.291Z,9.50
2018-11-29T09:06:13.274Z,9.20
2018-11-29T09:07:13.256Z,9.60
2018-11-29T09:08:13.226Z,9.80
2018-11-29T09:09:13.215Z,9.50
2018-11-29T09:10:13.201Z,9.70
2018-11-29T09:11:13.159Z,9.70
2018-11-29T09:12:13.151Z,9.40
2018-11-29T09:13:13.112Z,10.00
2018-11-29T09:14:13.096Z,9.30
2018-11-29T09:15:13.067Z,9.10
2018-11-29T09:16:13.055Z,9.50
2018-11-29T09:17:13.026Z,9.80
2018-11-29T09:18:12.999Z,9.00
2018-11-29T09:19:12.987Z,8.90
2018-11-29T09:20:12.954Z,9.20
2018-11-29T09:21:13.021Z,9.20
2018-11-29T09:22:12.912Z,9.00
2018-11-29T09:23:12.888Z,8.90
2018-11-29T09:24:12.876Z,8.80
2018-11-29T09:25:12.843Z,8.60
2018-11-29T09:26:12.819Z,9.00
2018-11-29T09:27:12.898Z,8.80
2018-11-29T09:28:12.776Z,9.60
2018-11-29T09:29:13.824Z,8.50
2018-11-29T09:30:12.747Z,9.30
2018-11-29T09:31:12.711Z,9.10
2018-11-29T09:32:12.685Z,9.40
2018-11-29T09:33:12.663Z,8.80
2018-11-29T09:34:12.639Z,9.60
2018-11-29T09:35:12.645Z,9.80
2018-11-29T09:36:12.600Z,8.80
2018-11-29T09:37:12.575Z,9.70
2018-11-29T09:38:12.551Z,8.70
2018-11-29T09:39:12.529Z,9.20
2018-11-29T09:40:12.506Z,8.50
2018-11-29T09:41:12.493Z,8.50
2018-11-29T09:42:12.461Z,8.50
2018-11-29T09:43:12.447Z,8.80
2018-11-29T09:44:12.425Z,8.90
2018-11-29T09:45:12.393Z,9.00
2018-11-29T09:46:12.376Z,9.00
2018-11-29T09:47:12.350Z,7.70
2018-11-29T09:48:12.330Z,8.20
2018-11-29T09:49:12.314Z,9.40
2018-11-29T09:50:12.283Z,9.30
2018-11-29T09:51:12.272Z,8.90
2018-11-29T09:52:12.240Z,8.70
2018-11-29T09:53:12.216Z,8.90
2018-11-29T09:54:12.193Z,9.20
2018-11-29T09:55:12.189Z,8.70
2018-11-29T09:56:12.149Z,8.30
2018-11-29T09:57:12.127Z,9.30
2018-11-29T09:58:12.104Z,9.00
2018-11-29T09:59:12.088Z,8.30
2018-11-29T10:00:12.069Z,8.20
2018-11-29T10:01:12.039Z,8.30
2018-11-29T10:02:12.017Z,8.10
2018-11-29T10:03:11.997Z,8.40
2018-11-29T10:04:11.980Z,8.50
2018-11-29T10:05:11.950Z,8.00
2018-11-29T10:06:11.938Z,7.90
2018-11-29T10:07:11.906Z,8.00
2018-11-29T10:08:12.308Z,8.50
2018-11-29T10:09:11.863Z,8.30
2018-11-29T10:10:11.841Z,8.20
2018-11-29T10:11:11.818Z,8.30
2018-11-29T10:12:11.795Z,7.90
2018-11-29T10:13:11.776Z,8.80
2018-11-29T10:14:11.761Z,9.30
2018-11-29T10:15:11.737Z,8.10
2018-11-29T10:16:11.718Z,8.20
2018-11-29T10:17:11.693Z,8.10
2018-11-29T10:18:11.668Z,8.30
2018-11-29T10:19:11.655Z,7.70
2018-11-29T10:20:11.623Z,7.80
2018-11-29T10:21:11.601Z,7.80
2018-11-29T10:22:11.579Z,8.90
2018-11-29T10:23:11.571Z,8.40
2018-11-29T10:24:11.539Z,7.40
2018-11-29T10:25:11.514Z,8.20
2018-11-29T10:26:11.518Z,7.30
2018-11-29T10:27:11.473Z,7.50
2018-11-29T10:28:11.451Z,8.20
2018-11-29T10:29:11.448Z,7.90
2018-11-29T10:30:11.408Z,7.40
2018-11-29T10:31:11.390Z,8.20
2018-11-29T10:32:11.375Z,7.10
2018-11-29T10:33:11.350Z,7.90
2018-11-29T10:34:11.327Z,7.60
2018-11-29T10:35:11.301Z,7.80
2018-11-29T10:36:11.286Z,7.20
2018-11-29T10:37:11.257Z,7.60
2018-11-29T10:38:11.235Z,7.90
2018-11-29T10:39:11.215Z,7.40
2018-11-29T10:40:11.193Z,7.50
2018-11-29T10:41:11.172Z,7.60
2018-11-29T10:42:11.156Z,7.50
2018-11-29T10:43:11.129Z,7.20
2018-11-29T10:44:11.108Z,7.30
2018-11-29T10:45:11.085Z,7.00
2018-11-29T10:46:11.063Z,7.60
2018-11-29T10:47:11.046Z,7.30
2018-11-29T10:48:11.022Z,7.00
2018-11-29T10:49:11.004Z,7.40
2018-11-29T10:50:10.978Z,7.00
2018-11-29T10:51:10.957Z,7.40
2018-11-29T10:52:10.936Z,7.10
2018-11-29T10:53:10.912Z,7.40
2018-11-29T10:54:10.891Z,7.40
2018-11-29T10:55:10.879Z,7.10
2018-11-29T10:56:10.857Z,7.50
2018-11-29T10:57:10.828Z,7.70
2018-11-29T10:58:10.906Z,7.50
2018-11-29T10:59:10.785Z,7.20
2018-11-29T11:00:10.764Z,7.30
2018-11-29T11:01:10.756Z,7.60
2018-11-29T11:02:10.725Z,7.50
2018-11-29T11:03:10.701Z,7.20
2018-11-29T11:04:10.677Z,6.90
2018-11-29T11:05:10.662Z,7.70
2018-11-29T11:06:10.635Z,6.80
2018-11-29T11:07:10.612Z,6.90
2018-11-29T11:08:10.593Z,7.10
2018-11-29T11:09:10.580Z,7.40
2018-11-29T11:10:10.549Z,7.00
2018-11-29T11:11:10.528Z,7.10
2018-11-29T11:12:10.507Z,7.20
2018-11-29T11:13:10.486Z,6.30
2018-11-29T11:14:10.465Z,6.80
2018-11-29T11:15:10.446Z,7.50
2018-11-29T11:16:10.420Z,7.10
2018-11-29T11:17:10.398Z,7.00
2018-11-29T11:18:10.385Z,7.20
2018-11-29T11:19:10.357Z,7.30
2018-11-29T11:20:10.350Z,6.90
2018-11-29T11:21:10.318Z,6.80
2018-11-29T11:22:10.290Z,7.20
2018-11-29T11:23:10.274Z,7.00
2018-11-29T11:24:10.253Z,6.10
2018-11-29T11:25:10.226Z,6.80
2018-11-29T11:26:10.207Z,7.60
2018-11-29T11:27:10.185Z,7.20
2018-11-29T11:28:10.167Z,7.10
2018-11-29T11:29:10.142Z,7.20
2018-11-29T11:30:10.121Z,7.20
2018-11-29T11:31:10.258Z,6.60
2018-11-29T11:32:10.078Z,7.00
2018-11-29T11:33:10.056Z,6.80
2018-11-29T11:34:10.047Z,7.40
2018-11-29T11:35:10.014Z,7.30
2018-11-29T11:36:10.006Z,6.30
2018-11-29T11:37:09.971Z,6.90
2018-11-29T11:38:09.951Z,6.40
2018-11-29T11:39:09.928Z,7.30
2018-11-29T11:40:09.916Z,6.70
2018-11-29T11:41:09.922Z,7.10
2018-11-29T11:42:09.864Z,7.90
2018-11-29T11:43:09.851Z,6.90
2018-11-29T11:44:09.829Z,7.30
2018-11-29T11:45:09.801Z,6.80
2018-11-29T11:46:09.779Z,6.80
2018-11-29T11:47:09.759Z,6.60
2018-11-29T11:48:09.739Z,7.00
2018-11-29T11:49:09.718Z,6.30
2018-11-29T11:50:10.797Z,7.00
2018-11-29T11:51:09.675Z,6.30
2018-11-29T11:52:09.859Z,6.80
2018-11-29T11:53:09.639Z,7.00
2018-11-29T11:54:09.621Z,6.50
2018-11-29T11:55:09.591Z,6.30
2018-11-29T11:56:09.571Z,6.60
2018-11-29T11:57:09.548Z,7.10
2018-11-29T11:58:09.529Z,7.40
2018-11-29T11:59:09.541Z,6.80
2018-11-29T12:00:09.490Z,6.60
2018-11-29T12:01:09.474Z,6.90
2018-11-29T12:02:09.455Z,6.90
2018-11-29T12:03:09.423Z,7.10
2018-11-29T12:04:09.408Z,7.40
2018-11-29T12:05:09.384Z,7.50
2018-11-29T12:06:09.371Z,6.90
2018-11-29T12:07:09.357Z,6.70
2018-11-29T12:08:09.322Z,6.60
2018-11-29T12:09:09.304Z,6.70
2018-11-29T12:10:09.279Z,9.10
2018-11-29T12:11:09.258Z,7.00
2018-11-29T12:12:09.239Z,6.60
2018-11-29T12:13:09.217Z,7.10
2018-11-29T12:14:09.201Z,6.80
2018-11-29T12:15:09.184Z,6.40
2018-11-29T12:16:09.159Z,6.40
2018-11-29T12:17:09.136Z,6.60
2018-11-29T12:18:09.120Z,6.30
2018-11-29T12:19:09.100Z,6.80
2018-11-29T12:20:09.076Z,7.20
2018-11-29T12:21:09.051Z,6.40
2018-11-29T12:22:09.048Z,6.40
2018-11-29T12:23:09.013Z,6.40
2018-11-29T12:24:08.991Z,6.30
2018-11-29T12:25:08.983Z,6.30
2018-11-29T12:26:10.052Z,6.20
2018-11-29T12:27:08.928Z,6.40
2018-11-29T12:28:08.922Z,5.70
2018-11-29T12:29:08.888Z,6.10
2018-11-29T12:30:08.866Z,6.00
2018-11-29T12:31:08.854Z,6.00
2018-11-29T12:32:08.833Z,6.40
2018-11-29T12:33:08.805Z,6.30
2018-11-29T12:34:08.812Z,5.80
2018-11-29T12:35:08.764Z,6.50
2018-11-29T12:36:08.746Z,6.40
2018-11-29T12:37:08.722Z,5.80
2018-11-29T12:38:08.711Z,5.70
2018-11-29T12:39:08.681Z,5.50
2018-11-29T12:40:08.668Z,5.70
2018-11-29T12:41:08.645Z,5.40
2018-11-29T12:42:08.627Z,5.90
2018-11-29T12:43:08.599Z,5.70
2018-11-29T12:44:08.578Z,5.50
2018-11-29T12:45:08.558Z,5.80
2018-11-29T12:46:08.539Z,6.00
2018-11-29T12:47:08.520Z,5.70
2018-11-29T12:48:08.502Z,5.50
2018-11-29T12:49:08.474Z,5.30
2018-11-29T12:50:08.504Z,5.30
2018-11-29T12:51:08.431Z,5.60
2018-11-29T12:52:08.421Z,5.00
2018-11-29T12:53:08.390Z,5.40
2018-11-29T12:54:08.369Z,5.00
2018-11-29T12:55:08.348Z,5.50
2018-11-29T12:56:08.379Z,5.10
2018-11-29T12:57:08.314Z,5.20
2018-11-29T12:58:08.291Z,5.40
2018-11-29T12:59:08.265Z,4.80
2018-11-29T13:00:08.248Z,5.10
2018-11-29T13:01:08.222Z,5.20
2018-11-29T13:02:08.220Z,5.10
2018-11-29T13:03:08.182Z,5.10
2018-11-29T13:04:08.160Z,5.00
2018-11-29T13:05:08.139Z,4.60
2018-11-29T13:06:08.117Z,5.10
2018-11-29T13:07:08.096Z,4.70
2018-11-29T13:08:08.076Z,5.20
2018-11-29T13:09:08.054Z,5.60
2018-11-29T13:10:08.033Z,4.80
2018-11-29T13:11:10.718Z,5.00
2018-11-29T13:12:07.999Z,4.80
2018-11-29T13:13:07.983Z,5.30
2018-11-29T13:14:08.064Z,5.30
2018-11-29T13:15:07.990Z,5.20
2018-11-29T13:16:07.908Z,4.80